createdAt,value
2023-02-19T00:01:32.044Z,16.45
2023-02-19T00:04:19.414Z,16.13
2023-02-19T00:06:47.175Z,16.77
2023-02-19T00:09:15.750Z,15.55
2023-02-19T00:11:43.167Z,15.85
2023-02-19T00:14:23.555Z,16.75
2023-02-19T00:16:50.491Z,15.50
2023-02-19T00:19:19.111Z,17.67
2023-02-19T00:22:00.838Z,15.15
2023-02-19T00:24:27.634Z,16.58
2023-02-19T00:26:54.443Z,16.83
2023-02-19T00:29:21.932Z,16.50
2023-02-19T00:31:48.878Z,15.65
2023-02-19T00:34:21.693Z,16.83
2023-02-19T00:37:08.948Z,16.50
2023-02-19T00:39:43.302Z,15.00
2023-02-19T00:42:12.711Z,15.75
2023-02-19T00:44:39.411Z,15.25
2023-02-19T00:47:06.043Z,42.42
2023-02-19T00:49:32.717Z,37.30
2023-02-19T00:52:05.799Z,59.25
2023-02-19T00:54:32.702Z,80.80
2023-02-19T00:57:02.341Z,84.43
2023-02-19T00:59:28.869Z,91.28
2023-02-19T01:01:55.529Z,85.90
2023-02-19T01:04:36.273Z,98.95
2023-02-19T01:07:10.027Z,97.35
2023-02-19T01:09:42.703Z,94.78
2023-02-19T01:12:09.316Z,96.95
2023-02-19T01:14:36.320Z,99.35
2023-02-19T01:17:06.178Z,99.47
2023-02-19T01:19:33.419Z,100.78
2023-02-19T01:21:59.947Z,102.55
2023-02-19T01:24:29.324Z,99.80
2023-02-19T01:26:56.344Z,99.20
2023-02-19T01:29:22.977Z,102.80
2023-02-19T01:31:52.637Z,102.13
2023-02-19T01:34:22.316Z,98.82
2023-02-19T01:36:56.381Z,103.43
2023-02-19T01:39:30.999Z,101.75
2023-02-19T01:41:58.672Z,100.90
2023-02-19T01:44:30.593Z,98.82
2023-02-19T01:47:00.491Z,100.80
2023-02-19T01:49:50.020Z,103.03
2023-02-19T01:52:34.826Z,96.68
2023-02-19T01:55:18.416Z,103.28
2023-02-19T01:57:56.221Z,107.25
2023-02-19T02:00:33.601Z,92.60
2023-02-19T02:03:01.760Z,109.45
2023-02-19T02:05:40.037Z,113.15
2023-02-19T02:08:28.957Z,108.95
2023-02-19T02:10:58.791Z,105.28
2023-02-19T02:13:25.662Z,106.20
2023-02-19T02:16:27.776Z,111.30
2023-02-19T02:19:13.637Z,107.00
2023-02-19T02:21:49.350Z,108.50
2023-02-19T02:24:40.923Z,108.40
2023-02-19T02:27:34.852Z,109.90
2023-02-19T02:30:19.725Z,108.65
2023-02-19T02:32:56.278Z,106.68
2023-02-19T02:35:30.937Z,106.75
2023-02-19T02:38:06.066Z,107.35
2023-02-19T02:40:36.354Z,105.10
2023-02-19T02:43:05.190Z,108.32
2023-02-19T02:45:34.936Z,105.82
2023-02-19T02:48:17.342Z,91.18
2023-02-19T02:53:52.860Z,77.45
2023-02-19T02:56:20.078Z,73.47
2023-02-19T02:58:50.024Z,73.55
2023-02-19T03:05:28.411Z,75.05
2023-02-19T03:08:14.743Z,77.60
2023-02-19T03:10:43.568Z,73.22
2023-02-19T03:13:37.526Z,71.97
2023-02-19T03:16:52.446Z,66.40
2023-02-19T03:19:25.191Z,64.93
2023-02-19T03:22:01.813Z,62.50
2023-02-19T03:24:53.957Z,65.97
2023-02-19T03:27:26.650Z,63.85
2023-02-19T03:30:07.315Z,63.90
2023-02-19T03:35:28.754Z,60.17
2023-02-19T03:38:19.541Z,58.83
2023-02-19T03:41:29.452Z,60.38
2023-02-19T03:44:08.333Z,61.25
2023-02-19T03:47:07.534Z,62.15
2023-02-19T03:50:01.942Z,61.40
2023-02-19T03:52:59.244Z,64.63
2023-02-19T03:55:58.233Z,65.32
2023-02-19T03:58:46.744Z,62.72
2023-02-19T04:01:22.345Z,64.82
2023-02-19T04:04:21.037Z,64.97
2023-02-19T04:06:59.797Z,61.78
2023-02-19T04:09:45.666Z,55.83
2023-02-19T04:12:22.687Z,52.63
2023-02-19T04:14:59.524Z,59.45
2023-02-19T04:17:56.810Z,53.10
2023-02-19T04:20:29.910Z,49.67
2023-02-19T04:23:06.441Z,46.88
2023-02-19T04:25:36.156Z,45.15
2023-02-19T04:28:07.847Z,46.97
2023-02-19T04:30:36.513Z,43.92
2023-02-19T04:33:03.080Z,46.33
2023-02-19T04:35:35.333Z,43.72
2023-02-19T04:38:04.907Z,42.78
2023-02-19T04:40:40.233Z,41.67
2023-02-19T04:43:07.022Z,42.55
2023-02-19T04:45:33.523Z,41.42
2023-02-19T04:48:07.447Z,40.88
2023-02-19T04:50:38.053Z,41.22
2023-02-19T04:53:06.242Z,40.33
2023-02-19T04:55:39.854Z,41.03
2023-02-19T04:58:07.540Z,38.22
2023-02-19T05:00:34.273Z,41.72
2023-02-19T05:03:04.180Z,40.65
2023-02-19T05:05:38.040Z,40.42
2023-02-19T05:08:07.510Z,38.78
2023-02-19T05:10:46.380Z,39.08
2023-02-19T05:13:16.665Z,38.67
2023-02-19T05:16:15.938Z,39.38
2023-02-19T05:18:48.671Z,38.63
2023-02-19T05:21:15.553Z,39.65
2023-02-19T05:23:42.318Z,38.38
2023-02-19T05:26:21.904Z,37.38
2023-02-19T05:28:51.080Z,37.38
2023-02-19T05:31:25.750Z,38.28
2023-02-19T05:33:55.695Z,37.72
2023-02-19T05:36:25.618Z,37.72
2023-02-19T05:38:55.173Z,38.17
2023-02-19T05:41:27.194Z,36.22
2023-02-19T05:43:54.536Z,36.78
2023-02-19T05:46:24.669Z,35.88
2023-02-19T05:48:52.544Z,37.50
2023-02-19T05:51:22.719Z,37.03
2023-02-19T05:53:50.119Z,36.80
2023-02-19T05:56:38.975Z,36.88
2023-02-19T05:59:28.611Z,37.28
2023-02-19T06:01:55.939Z,37.40
2023-02-19T06:04:23.565Z,38.40
2023-02-19T06:06:50.484Z,37.25
2023-02-19T06:09:17.209Z,37.75
2023-02-19T06:11:45.571Z,36.20
2023-02-19T06:14:14.075Z,37.40
2023-02-19T06:16:49.880Z,37.50
2023-02-19T06:19:19.240Z,38.47
2023-02-19T06:21:54.979Z,40.10
2023-02-19T06:24:21.620Z,36.95
2023-02-19T06:26:48.123Z,39.25
2023-02-19T06:29:20.624Z,40.00
2023-02-19T06:31:47.372Z,38.40
2023-02-19T06:34:17.438Z,38.63
2023-02-19T06:36:44.642Z,38.63
2023-02-19T06:39:11.321Z,39.40
2023-02-19T06:41:45.510Z,42.45
2023-02-19T06:44:12.083Z,41.92
2023-02-19T06:46:38.675Z,40.65
2023-02-19T06:49:08.437Z,39.47
2023-02-19T06:51:38.467Z,37.88
2023-02-19T06:54:13.707Z,40.20
2023-02-19T06:56:43.954Z,39.78
2023-02-19T06:59:18.062Z,39.67
2023-02-19T07:01:46.251Z,38.17
2023-02-19T07:04:13.241Z,40.35
2023-02-19T07:06:46.554Z,39.15
2023-02-19T07:09:17.420Z,35.70
2023-02-19T07:11:44.063Z,38.38
2023-02-19T07:14:15.708Z,38.97
2023-02-19T07:16:43.181Z,38.75
2023-02-19T07:19:29.451Z,36.75
2023-02-19T07:21:58.834Z,37.72
2023-02-19T07:24:28.551Z,39.47
2023-02-19T07:26:58.251Z,41.13
2023-02-19T07:29:24.978Z,38.20
2023-02-19T07:31:51.521Z,40.65
2023-02-19T07:34:18.449Z,40.85
2023-02-19T07:36:45.379Z,42.70
2023-02-19T07:39:25.924Z,39.53
2023-02-19T07:42:00.689Z,42.45
2023-02-19T07:44:41.191Z,42.60
2023-02-19T07:47:14.542Z,43.10
2023-02-19T07:49:41.336Z,43.80
2023-02-19T07:52:08.100Z,42.80
2023-02-19T07:54:42.219Z,41.25
2023-02-19T07:57:12.443Z,43.22
2023-02-19T07:59:42.062Z,42.58
2023-02-19T08:02:46.648Z,43.50
2023-02-19T08:05:13.953Z,42.65
2023-02-19T08:07:45.090Z,43.38
2023-02-19T08:10:30.644Z,44.17
2023-02-19T08:13:20.072Z,41.42
2023-02-19T08:16:10.964Z,43.53
2023-02-19T08:18:42.894Z,42.35
2023-02-19T08:21:10.232Z,40.70
2023-02-19T08:23:36.987Z,43.00
2023-02-19T08:26:21.543Z,42.85
2023-02-19T08:28:51.243Z,41.15
2023-02-19T08:31:27.416Z,40.80
2023-02-19T08:34:00.116Z,40.90
2023-02-19T08:36:36.532Z,42.53
2023-02-19T08:39:03.580Z,43.17
2023-02-19T08:41:30.413Z,42.20
2023-02-19T08:43:59.662Z,42.05
2023-02-19T08:46:26.840Z,40.90
2023-02-19T08:49:00.610Z,40.42
2023-02-19T08:51:27.323Z,41.30
2023-02-19T08:53:54.775Z,38.10
2023-02-19T08:56:24.667Z,36.17
2023-02-19T08:59:00.079Z,40.78
2023-02-19T09:01:26.848Z,39.03
2023-02-19T09:03:53.748Z,40.33
2023-02-19T09:06:25.493Z,40.70
2023-02-19T09:09:01.152Z,37.50
2023-02-19T09:11:40.561Z,40.05
2023-02-19T09:14:07.911Z,37.47
2023-02-19T09:16:46.648Z,36.58
2023-02-19T09:19:15.928Z,37.42
2023-02-19T09:21:45.863Z,36.05
2023-02-19T09:24:12.408Z,33.70
2023-02-19T09:26:43.424Z,34.45
2023-02-19T09:29:15.177Z,35.50
2023-02-19T09:31:44.124Z,34.60
2023-02-19T09:34:15.289Z,32.60
2023-02-19T09:36:45.003Z,31.52
2023-02-19T09:39:15.079Z,31.35
2023-02-19T09:41:53.863Z,30.10
2023-02-19T09:44:31.189Z,29.40
2023-02-19T09:47:03.200Z,32.60
2023-02-19T09:49:33.783Z,33.47
2023-02-19T09:52:18.493Z,32.35
2023-02-19T09:54:48.519Z,29.85
2023-02-19T09:57:46.650Z,34.28
2023-02-19T10:00:26.146Z,31.23
2023-02-19T10:03:11.190Z,29.00
2023-02-19T10:05:40.031Z,30.48
2023-02-19T10:08:18.330Z,29.27
2023-02-19T10:10:48.165Z,31.42
2023-02-19T10:13:20.879Z,27.38
2023-02-19T10:15:56.405Z,27.65
2023-02-19T10:18:28.486Z,29.10
2023-02-19T10:20:56.671Z,28.77
2023-02-19T10:23:25.242Z,31.75
2023-02-19T10:25:57.166Z,26.00
2023-02-19T10:28:28.998Z,26.88
2023-02-19T10:33:29.666Z,28.60
2023-02-19T10:36:26.604Z,25.48
2023-02-19T10:38:58.193Z,24.05
2023-02-19T10:41:35.922Z,26.17
2023-02-19T10:44:09.728Z,25.55
2023-02-19T10:46:59.490Z,24.40
2023-02-19T10:49:41.255Z,24.92
2023-02-19T10:52:19.268Z,28.15
2023-02-19T10:54:59.942Z,29.23
2023-02-19T10:57:43.848Z,28.45
2023-02-19T11:00:26.807Z,26.95
2023-02-19T11:03:26.079Z,24.58
2023-02-19T11:06:11.060Z,23.35
2023-02-19T11:08:43.694Z,26.67
2023-02-19T11:11:11.873Z,22.85
2023-02-19T11:13:41.872Z,24.63
2023-02-19T11:16:08.602Z,23.83
2023-02-19T11:18:38.560Z,26.70
2023-02-19T11:21:07.327Z,20.35
2023-02-19T11:23:46.960Z,22.05
2023-02-19T11:26:21.090Z,20.92
2023-02-19T11:28:59.182Z,28.48
2023-02-19T11:31:31.921Z,22.38
2023-02-19T11:34:01.713Z,22.17
2023-02-19T11:37:08.142Z,22.25
2023-02-19T11:39:35.291Z,26.67
2023-02-19T11:42:32.929Z,24.23
2023-02-19T11:45:24.732Z,27.60
2023-02-19T11:48:16.652Z,20.88
2023-02-19T11:51:01.948Z,19.83
2023-02-19T11:53:33.679Z,20.00
2023-02-19T11:56:19.710Z,20.60
2023-02-19T11:59:13.134Z,23.85
2023-02-19T12:02:09.781Z,24.08
2023-02-19T12:05:14.136Z,23.42
2023-02-19T12:08:18.044Z,18.80
2023-02-19T12:11:26.493Z,19.88
2023-02-19T12:14:44.359Z,19.35
2023-02-19T12:17:49.584Z,24.67
2023-02-19T12:20:36.522Z,26.48
2023-02-19T12:23:15.152Z,24.63
2023-02-19T12:26:03.721Z,21.13
2023-02-19T12:28:49.076Z,21.15
2023-02-19T12:31:28.652Z,19.60
2023-02-19T12:34:30.651Z,21.50
2023-02-19T12:37:15.535Z,18.52
2023-02-19T12:40:15.050Z,20.83
2023-02-19T12:43:04.878Z,22.08
2023-02-19T12:46:02.567Z,25.60
2023-02-19T12:49:00.227Z,22.83
2023-02-19T12:51:42.764Z,26.85
2023-02-19T12:54:24.505Z,22.33
2023-02-19T12:57:14.105Z,19.40
2023-02-19T12:59:53.582Z,19.35
2023-02-19T13:03:05.320Z,21.95
2023-02-19T13:05:48.128Z,21.67
2023-02-19T13:08:20.115Z,20.52
2023-02-19T13:10:54.848Z,22.80
2023-02-19T13:13:48.547Z,21.27
2023-02-19T13:16:20.785Z,22.15
2023-02-19T13:18:51.981Z,23.02
2023-02-19T13:21:40.311Z,17.67
2023-02-19T13:24:25.169Z,19.33
2023-02-19T13:27:14.605Z,19.15
2023-02-19T13:29:59.125Z,18.17
2023-02-19T13:32:56.879Z,24.02
2023-02-19T13:35:26.620Z,21.35
2023-02-19T13:38:01.938Z,18.85
2023-02-19T13:40:34.952Z,20.23
2023-02-19T13:43:05.661Z,18.38
2023-02-19T13:45:41.811Z,18.83
2023-02-19T13:48:33.527Z,18.92
2023-02-19T13:51:24.790Z,18.52
2023-02-19T13:54:02.858Z,25.67
2023-02-19T13:56:39.273Z,21.40
2023-02-19T13:59:43.283Z,23.95
2023-02-19T14:02:26.719Z,21.38
2023-02-19T14:05:13.900Z,21.50
2023-02-19T14:08:04.431Z,22.85
2023-02-19T14:10:54.468Z,20.95
2023-02-19T14:13:57.120Z,19.40
2023-02-19T14:16:50.425Z,21.95
2023-02-19T14:19:44.713Z,17.95
2023-02-19T14:22:48.056Z,18.25
2023-02-19T14:25:41.519Z,16.58
2023-02-19T14:28:19.498Z,22.85
2023-02-19T14:30:56.284Z,17.85
2023-02-19T14:33:37.748Z,17.40
2023-02-19T14:36:48.793Z,18.17
2023-02-19T14:39:37.357Z,16.73
2023-02-19T14:42:35.647Z,17.35
2023-02-19T14:45:07.251Z,20.65
2023-02-19T14:47:36.514Z,19.88
2023-02-19T14:50:07.241Z,17.60
2023-02-19T14:52:45.777Z,16.05
2023-02-19T14:55:30.861Z,20.30
2023-02-19T14:58:08.396Z,16.73
2023-02-19T15:00:37.978Z,18.63
2023-02-19T15:03:05.887Z,19.58
2023-02-19T15:05:40.021Z,15.05
2023-02-19T15:08:11.854Z,18.45
2023-02-19T15:13:16.734Z,14.68
2023-02-19T15:15:46.438Z,17.00
2023-02-19T15:18:24.810Z,18.45
2023-02-19T15:21:03.197Z,16.80
2023-02-19T15:23:44.792Z,15.77
2023-02-19T15:26:42.126Z,18.77
2023-02-19T15:32:21.880Z,15.63
2023-02-19T15:34:59.009Z,16.60
2023-02-19T15:37:35.180Z,17.63
2023-02-19T15:40:09.328Z,15.50
2023-02-19T15:42:38.187Z,16.40
2023-02-19T15:45:13.768Z,16.25
2023-02-19T15:47:52.772Z,15.20
2023-02-19T15:50:28.587Z,16.20
2023-02-19T15:53:26.432Z,17.65
2023-02-19T15:56:06.746Z,16.02
2023-02-19T15:58:53.347Z,18.17
2023-02-19T16:01:49.062Z,14.80
2023-02-19T16:04:18.489Z,14.98
2023-02-19T16:06:58.454Z,14.88
2023-02-19T16:09:41.161Z,15.63
2023-02-19T16:12:33.175Z,15.77
2023-02-19T16:15:00.041Z,15.10
2023-02-19T16:17:28.269Z,14.65
2023-02-19T16:20:03.471Z,14.60
2023-02-19T16:22:41.952Z,16.80
2023-02-19T16:25:28.553Z,15.40
2023-02-19T16:28:06.394Z,16.30
2023-02-19T16:30:39.423Z,16.13
2023-02-19T16:33:41.475Z,12.82
2023-02-19T16:36:30.636Z,15.13
2023-02-19T16:39:14.961Z,15.65
2023-02-19T16:41:51.712Z,15.52
2023-02-19T16:44:21.660Z,15.25
2023-02-19T16:47:00.494Z,15.25
2023-02-19T16:49:27.082Z,15.35
2023-02-19T16:51:54.633Z,16.15
2023-02-19T16:54:21.218Z,16.23
2023-02-19T16:57:04.415Z,14.73
2023-02-19T16:59:32.223Z,14.73
2023-02-19T17:01:58.919Z,13.32
2023-02-19T17:04:27.636Z,15.25
2023-02-19T17:06:57.084Z,12.70
2023-02-19T17:09:26.251Z,14.68
2023-02-19T17:12:06.966Z,16.77
2023-02-19T17:14:39.868Z,13.77
2023-02-19T17:17:06.585Z,13.95
2023-02-19T17:19:34.762Z,12.85
2023-02-19T17:22:01.498Z,15.52
2023-02-19T17:24:30.783Z,18.13
2023-02-19T17:27:00.381Z,14.13
2023-02-19T17:29:34.082Z,15.48
2023-02-19T17:32:00.920Z,19.33
2023-02-19T17:34:30.127Z,17.50
2023-02-19T17:36:56.897Z,15.27
2023-02-19T17:39:26.293Z,15.35
2023-02-19T17:41:56.085Z,13.55
2023-02-19T17:44:24.535Z,14.45
2023-02-19T17:47:04.702Z,14.93
2023-02-19T17:49:36.127Z,13.55
2023-02-19T17:52:08.793Z,21.38
2023-02-19T17:54:35.672Z,17.45
2023-02-19T17:57:02.542Z,20.42
2023-02-19T17:59:29.212Z,18.13
2023-02-19T18:01:55.932Z,29.63
2023-02-19T18:04:25.800Z,32.67
2023-02-19T18:06:54.102Z,28.40
2023-02-19T18:09:23.263Z,31.35
2023-02-19T18:11:53.904Z,33.55
2023-02-19T18:14:22.957Z,26.67
2023-02-19T18:16:50.960Z,32.22
2023-02-19T18:19:18.915Z,24.98
2023-02-19T18:21:47.002Z,27.98
2023-02-19T18:24:25.080Z,26.30
2023-02-19T18:26:51.785Z,35.15
2023-02-19T18:29:28.526Z,21.13
2023-02-19T18:31:55.626Z,24.25
2023-02-19T18:34:22.805Z,33.55
2023-02-19T18:36:59.056Z,34.17
2023-02-19T18:39:26.058Z,33.85
2023-02-19T18:41:52.709Z,33.83
2023-02-19T18:44:21.157Z,32.05
2023-02-19T18:46:48.006Z,29.60
2023-02-19T18:49:15.749Z,26.25
2023-02-19T18:51:49.186Z,33.58
2023-02-19T18:54:24.202Z,28.05
2023-02-19T18:56:51.280Z,32.10
2023-02-19T18:59:39.537Z,29.45
2023-02-19T19:02:07.763Z,31.08
2023-02-19T19:04:37.794Z,30.50
2023-02-19T19:07:06.553Z,26.08
2023-02-19T19:09:36.769Z,29.30
2023-02-19T19:12:03.838Z,29.10
2023-02-19T19:14:30.531Z,32.42
2023-02-19T19:17:00.282Z,36.38
2023-02-19T19:19:26.879Z,28.05
2023-02-19T19:21:57.351Z,31.92
2023-02-19T19:24:24.728Z,32.30
2023-02-19T19:26:52.262Z,34.58
2023-02-19T19:29:27.344Z,33.67
2023-02-19T19:31:57.388Z,32.78
2023-02-19T19:34:24.219Z,30.95
2023-02-19T19:36:53.807Z,32.92
2023-02-19T19:39:20.345Z,26.77
2023-02-19T19:41:46.874Z,30.05
2023-02-19T19:44:14.572Z,31.30
2023-02-19T19:46:52.388Z,31.35
2023-02-19T19:49:20.544Z,27.27
2023-02-19T19:51:50.116Z,31.45
2023-02-19T19:54:21.082Z,30.02
2023-02-19T19:56:47.843Z,32.57
2023-02-19T19:59:19.978Z,37.08
2023-02-19T20:01:55.314Z,35.60
2023-02-19T20:04:25.863Z,34.45
2023-02-19T20:06:55.660Z,35.55
2023-02-19T20:09:25.568Z,34.92
2023-02-19T20:11:57.431Z,34.60
2023-02-19T20:17:02.852Z,36.78
2023-02-19T20:19:29.483Z,36.95
2023-02-19T20:21:56.160Z,36.50
2023-02-19T20:24:28.908Z,36.85
2023-02-19T20:27:00.561Z,35.50
2023-02-19T20:29:33.335Z,37.38
2023-02-19T20:32:02.445Z,35.72
2023-02-19T20:34:33.312Z,34.95
2023-02-19T20:37:00.031Z,35.90
2023-02-19T20:39:29.975Z,34.38
2023-02-19T20:41:58.479Z,31.92
2023-02-19T20:44:31.695Z,32.97
2023-02-19T20:47:04.547Z,31.35
2023-02-19T20:49:34.413Z,32.35
2023-02-19T20:52:05.285Z,32.20
2023-02-19T20:54:35.048Z,34.30
2023-02-19T20:57:04.103Z,33.85
2023-02-19T20:59:38.755Z,29.83
2023-02-19T21:02:17.603Z,32.65
2023-02-19T21:04:56.792Z,33.25
2023-02-19T21:07:33.433Z,30.83
2023-02-19T21:10:05.510Z,28.73
2023-02-19T21:15:34.780Z,33.70
2023-02-19T21:18:15.249Z,29.40
2023-02-19T21:20:57.590Z,33.35
2023-02-19T21:23:38.937Z,31.48
2023-02-19T21:26:15.626Z,35.78
2023-02-19T21:28:45.054Z,35.25
2023-02-19T21:31:16.779Z,37.97
2023-02-19T21:33:47.647Z,35.22
2023-02-19T21:36:21.530Z,34.72
2023-02-19T21:39:20.588Z,37.92
2023-02-19T21:41:50.225Z,34.92
2023-02-19T21:44:34.677Z,36.35
2023-02-19T21:47:03.782Z,38.33
2023-02-19T21:49:34.224Z,37.10
2023-02-19T21:52:00.820Z,37.13
2023-02-19T21:54:30.952Z,36.95
2023-02-19T21:57:07.116Z,37.53
2023-02-19T21:59:42.631Z,38.97
2023-02-19T22:02:36.477Z,38.25
2023-02-19T22:05:04.461Z,42.35
2023-02-19T22:07:39.240Z,41.28
2023-02-19T22:10:16.062Z,39.38
2023-02-19T22:12:50.789Z,39.42
2023-02-19T22:15:17.499Z,36.55
2023-02-19T22:17:51.452Z,33.03
2023-02-19T22:20:19.667Z,42.38
2023-02-19T22:22:50.228Z,33.65
2023-02-19T22:25:22.684Z,35.40
2023-02-19T22:27:49.393Z,34.13
2023-02-19T22:30:16.242Z,46.00
2023-02-19T22:32:43.041Z,48.35
2023-02-19T22:35:15.387Z,47.47
2023-02-19T22:37:52.914Z,50.40
2023-02-19T22:40:19.789Z,46.38
2023-02-19T22:42:50.237Z,50.67
2023-02-19T22:45:31.820Z,44.85
2023-02-19T22:48:06.511Z,50.25
2023-02-19T22:50:48.240Z,48.78
2023-02-19T22:53:15.588Z,47.55
2023-02-19T22:56:00.350Z,48.53
2023-02-19T23:01:13.339Z,49.03
2023-02-19T23:03:55.142Z,47.38
2023-02-19T23:06:33.794Z,49.30
2023-02-19T23:09:21.639Z,49.75
2023-02-19T23:11:51.555Z,51.05
2023-02-19T23:14:26.899Z,48.05
2023-02-19T23:16:53.545Z,45.83
2023-02-19T23:19:20.171Z,44.50
2023-02-19T23:21:54.409Z,43.45
2023-02-19T23:24:30.133Z,43.20
2023-02-19T23:27:07.646Z,44.90
2023-02-19T23:29:41.147Z,41.53
2023-02-19T23:32:12.815Z,41.78
2023-02-19T23:34:42.717Z,43.55
2023-02-19T23:37:09.339Z,43.40
2023-02-19T23:39:44.958Z,41.15
2023-02-19T23:42:20.453Z,42.03
2023-02-19T23:44:47.660Z,41.05
2023-02-19T23:47:23.357Z,42.22
2023-02-19T23:49:50.028Z,38.47
2023-02-19T23:52:17.775Z,38.45
2023-02-19T23:54:47.375Z,39.88
